Time;durP1;ratioP1;P1;durP2;ratioP2;P2;SDS_P1;SDS_P2;PMS_P1;PMS_P2;Temp;Humidity;BMP_temperature;BMP_pressure;BME280_temperature;BME280_humidity;BME280_pressure;Samples;Min_cycle;Max_cycle;Signal;HPM_P1;HPM_P2
2023/12/30 00:01:12;;;;;;;4.90;1.38;;;;;;;4.75;100.00;100550.06;5044485;28;20110;-72
2023/12/30 00:03:58;;;;;;;3.72;1.20;;;;;;;4.79;100.00;100550.84;5051860;28;20036;-73
2023/12/30 00:06:44;;;;;;;4.97;1.15;;;;;;;4.80;100.00;100557.81;5053850;28;20049;-72
2023/12/30 00:09:30;;;;;;;2.67;0.98;;;;;;;4.79;100.00;100554.31;5040606;28;20044;-73
2023/12/30 00:12:19;;;;;;;8.45;1.20;;;;;;;4.79;100.00;100561.34;5055626;28;20811;-73
2023/12/30 00:15:06;;;;;;;9.10;1.38;;;;;;;4.81;100.00;100562.16;5044689;28;20137;-72
2023/12/30 00:17:51;;;;;;;3.45;1.10;;;;;;;4.82;100.00;100561.25;5054036;28;20110;-72
2023/12/30 00:20:37;;;;;;;3.72;1.00;;;;;;;4.83;100.00;100563.84;5055059;28;20064;-73
2023/12/30 00:23:23;;;;;;;3.20;1.10;;;;;;;4.85;100.00;100562.03;5052776;28;20055;-72
2023/12/30 00:26:21;;;;;;;3.72;1.00;;;;;;;4.82;100.00;100567.38;5041956;28;20179;-73
2023/12/30 00:29:07;;;;;;;4.72;1.30;;;;;;;4.82;100.00;100561.25;5054017;28;20569;-72
2023/12/30 00:31:52;;;;;;;4.85;1.10;;;;;;;4.82;100.00;100571.75;5045896;28;20053;-73
2023/12/30 00:34:38;;;;;;;5.40;1.45;;;;;;;4.81;100.00;100572.66;5053467;28;20059;-73
2023/12/30 00:37:24;;;;;;;7.05;1.63;;;;;;;4.78;100.00;100576.19;5054752;28;20049;-73
2023/12/30 00:40:11;;;;;;;2.53;0.98;;;;;;;4.78;100.00;100584.06;5056655;28;20128;-72
2023/12/30 00:42:57;;;;;;;6.90;0.90;;;;;;;4.79;100.00;100582.31;5044406;28;20052;-72
2023/12/30 00:45:43;;;;;;;7.32;1.52;;;;;;;4.79;100.00;100577.06;5056062;28;20131;-73
2023/12/30 00:48:28;;;;;;;8.35;1.92;;;;;;;4.78;100.00;100576.19;5053098;28;21681;-73
2023/12/30 00:51:14;;;;;;;3.30;1.35;;;;;;;4.82;100.00;100582.22;5045787;28;20046;-73
2023/12/30 00:54:00;;;;;;;6.38;1.40;;;;;;;4.82;100.00;100580.47;5055212;28;20624;-73
2023/12/30 01:00:14;;;;;;;5.47;1.17;;;;;;;4.82;100.00;100587.47;4999077;28;20057;-73
2023/12/30 01:03:03;;;;;;;5.15;1.15;;;;;;;4.83;100.00;100595.31;4992017;28;20040;-73
2023/12/30 01:05:58;;;;;;;7.35;1.40;;;;;;;4.86;100.00;100597.84;4973084;28;20054;-72
2023/12/30 01:08:54;;;;;;;2.10;0.95;;;;;;;4.83;100.00;100595.31;5002304;28;20053;-73
2023/12/30 01:11:40;;;;;;;7.80;1.23;;;;;;;4.82;100.00;100588.34;5025803;23;20057;-72
2023/12/30 01:14:26;;;;;;;3.90;1.00;;;;;;;4.82;100.00;100597.97;5009463;28;20052;-73
2023/12/30 01:17:12;;;;;;;4.10;1.00;;;;;;;4.82;100.00;100605.84;5008792;28;22057;-73
2023/12/30 01:19:58;;;;;;;3.90;1.08;;;;;;;4.80;100.00;100603.25;5009063;28;20045;-74
2023/12/30 01:22:44;;;;;;;4.68;1.05;;;;;;;4.79;100.00;100605.94;5019832;28;20052;-74
2023/12/30 01:25:39;;;;;;;6.85;1.38;;;;;;;4.78;100.00;100602.44;5023035;28;20061;-75
2023/12/30 01:28:25;;;;;;;4.57;1.05;;;;;;;4.76;100.00;100599.00;5022874;28;20083;-71
2023/12/30 01:31:18;;;;;;;4.90;1.27;;;;;;;4.74;100.00;100596.41;5025639;28;20049;-72
2023/12/30 01:34:24;;;;;;;4.53;0.98;;;;;;;4.76;100.00;100589.34;5009726;28;22019;-72
2023/12/30 01:37:10;;;;;;;4.35;0.90;;;;;;;4.82;100.00;100597.97;4994104;28;20080;-72
2023/12/30 01:39:59;;;;;;;4.45;1.00;;;;;;;4.86;100.00;100605.72;5021347;28;20049;-74
2023/12/30 01:42:44;;;;;;;6.95;1.13;;;;;;;4.87;100.00;100602.22;5022335;28;20535;-73
2023/12/30 01:45:30;;;;;;;5.93;0.98;;;;;;;4.88;100.00;100603.06;5007323;28;20045;-73
2023/12/30 01:48:25;;;;;;;6.95;1.30;;;;;;;4.89;100.00;100616.16;5022372;28;20870;-73
2023/12/30 01:51:12;;;;;;;5.80;1.30;;;;;;;4.91;100.00;100621.38;5008120;28;20044;-73
2023/12/30 01:53:57;;;;;;;5.88;1.23;;;;;;;4.95;100.00;100624.78;5003608;28;20057;-74
2023/12/30 01:56:53;;;;;;;11.68;1.40;;;;;;;4.97;100.00;100631.69;5017457;28;20037;-73
2023/12/30 01:59:40;;;;;;;9.30;1.27;;;;;;;5.02;100.00;100629.81;5030266;28;20124;-72
2023/12/30 02:02:25;;;;;;;5.07;1.20;;;;;;;5.06;100.00;100632.38;5028957;28;20109;-73
2023/12/30 02:05:56;;;;;;;5.32;1.23;;;;;;;5.08;100.00;100646.31;5024135;28;20599;-74
2023/12/30 02:08:43;;;;;;;2.75;1.00;;;;;;;5.08;100.00;100649.81;5042420;28;20514;-74
2023/12/30 02:11:29;;;;;;;8.77;1.13;;;;;;;5.06;100.00;100656.00;5003418;28;20115;-72
2023/12/30 02:14:33;;;;;;;8.35;1.35;;;;;;;5.04;100.00;100656.00;5017600;28;20057;-74
2023/12/30 02:17:18;;;;;;;5.05;1.05;;;;;;;5.01;100.00;100662.19;5014069;28;20096;-73
2023/12/30 02:20:05;;;;;;;10.85;2.45;;;;;;;5.04;100.00;100656.00;5017934;28;20041;-73
2023/12/30 02:22:51;;;;;;;6.15;2.40;;;;;;;5.02;100.00;100658.66;5016662;28;20045;-73
2023/12/30 02:25:37;;;;;;;8.75;1.58;;;;;;;5.02;100.00;100661.28;5019321;28;20141;-73
2023/12/30 02:28:22;;;;;;;6.05;1.35;;;;;;;5.03;100.00;100660.38;5035553;28;20416;-72
2023/12/30 02:31:24;;;;;;;7.25;1.30;;;;;;;5.05;100.00;100664.75;5020795;28;20060;-72
2023/12/30 02:34:10;;;;;;;6.15;1.02;;;;;;;5.03;100.00;100657.75;5016223;28;20049;-73
2023/12/30 02:37:05;;;;;;;6.88;1.55;;;;;;;5.01;100.00;100662.19;5019797;28;20095;-72
2023/12/30 02:39:51;;;;;;;7.05;1.50;;;;;;;5.00;100.00;100670.97;5020611;28;20041;-73
2023/12/30 02:42:39;;;;;;;4.50;1.23;;;;;;;4.99;100.00;100674.50;5020546;28;20075;-73
2023/12/30 02:45:32;;;;;;;5.97;1.45;;;;;;;5.00;100.00;100681.47;5049620;23;20060;-73
2023/12/30 02:48:17;;;;;;;4.73;1.00;;;;;;;5.02;100.00;100690.16;5042531;28;20044;-74
2023/12/30 02:51:03;;;;;;;5.03;1.08;;;;;;;5.02;100.00;100694.56;5029160;28;20302;-72
2023/12/30 02:53:49;;;;;;;7.82;1.40;;;;;;;5.03;100.00;100689.25;5048026;28;20072;-72
2023/12/30 02:56:35;;;;;;;8.20;1.42;;;;;;;5.05;100.00;100698.88;5034927;28;20045;-74
2023/12/30 02:59:21;;;;;;;6.15;1.20;;;;;;;5.05;100.00;100689.22;5033700;28;20469;-73
2023/12/30 03:02:06;;;;;;;8.10;1.20;;;;;;;5.10;100.00;100694.34;5046416;28;20087;-73
2023/12/30 03:04:54;;;;;;;3.90;1.10;;;;;;;5.13;100.00;100700.38;5037068;28;20059;-74
2023/12/30 03:07:40;;;;;;;4.05;0.98;;;;;;;5.16;100.00;100696.81;5039657;28;20094;-74
2023/12/30 03:10:26;;;;;;;6.07;1.13;;;;;;;5.17;100.00;100703.78;5039993;28;20053;-72
2023/12/30 03:13:24;;;;;;;6.07;1.40;;;;;;;5.18;100.00;100702.91;5041451;28;20072;-72
2023/12/30 03:16:15;;;;;;;3.92;0.85;;;;;;;5.16;100.00;100702.06;5032915;28;20555;-73
2023/12/30 03:19:01;;;;;;;5.88;1.23;;;;;;;5.16;100.00;100702.06;5037821;28;20076;-73
2023/12/30 03:21:47;;;;;;;8.43;1.30;;;;;;;5.14;100.00;100706.50;5038070;28;20044;-72
2023/12/30 03:24:33;;;;;;;3.00;1.13;;;;;;;5.13;100.00;100716.13;5033628;28;20052;-74
2023/12/30 03:27:18;;;;;;;7.13;1.30;;;;;;;5.08;100.00;100709.28;5039373;28;20608;-72
2023/12/30 03:30:06;;;;;;;5.00;1.02;;;;;;;5.04;100.00;100719.00;5041310;28;20052;-73
2023/12/30 03:32:52;;;;;;;5.07;1.08;;;;;;;5.02;100.00;100719.03;5036109;28;20051;-72
2023/12/30 03:35:37;;;;;;;3.88;1.30;;;;;;;5.03;100.00;100717.28;5036466;28;20045;-73
2023/12/30 03:38:23;;;;;;;7.03;1.23;;;;;;;5.03;100.00;100720.75;5035783;28;20043;-72
2023/12/30 03:41:09;;;;;;;7.30;1.25;;;;;;;5.06;100.00;100711.94;5034572;28;20496;-73
2023/12/30 03:43:55;;;;;;;4.93;1.23;;;;;;;5.05;100.00;100712.84;5036098;28;20114;-72
2023/12/30 03:46:41;;;;;;;4.30;1.02;;;;;;;5.07;100.00;100723.31;5034809;28;20112;-73
2023/12/30 03:49:26;;;;;;;4.93;1.00;;;;;;;5.09;100.00;100719.75;5037610;28;20488;-72
2023/12/30 03:52:12;;;;;;;6.32;1.10;;;;;;;5.09;100.00;100726.75;5038197;28;20127;-72
2023/12/30 03:54:58;;;;;;;5.10;1.27;;;;;;;5.05;100.00;100728.59;5037050;28;20713;-75
2023/12/30 03:57:50;;;;;;;5.80;1.50;;;;;;;5.05;100.00;100725.13;5034376;28;20408;-73
2023/12/30 04:00:36;;;;;;;6.97;1.20;;;;;;;5.00;100.00;100717.34;5046849;28;20049;-74
2023/12/30 04:03:22;;;;;;;8.45;1.40;;;;;;;4.98;100.00;100733.13;5034063;28;20060;-73
2023/12/30 04:09:28;;;;;;;3.60;0.80;;;;;;;4.94;100.00;100720.97;5053640;23;20603;-73
2023/12/30 04:12:14;;;;;;;9.93;1.42;;;;;;;4.91;100.00;100717.56;5054222;28;21957;-73
2023/12/30 04:14:59;;;;;;;4.70;1.05;;;;;;;4.91;100.00;100725.44;5052711;28;20127;-72
2023/12/30 04:17:45;;;;;;;4.35;1.17;;;;;;;4.91;100.00;100728.94;5051646;28;20048;-73
2023/12/30 04:20:31;;;;;;;8.20;1.23;;;;;;;4.94;100.00;100733.22;5056308;28;20053;-73
2023/12/30 04:23:18;;;;;;;6.45;1.08;;;;;;;4.95;100.00;100727.09;5045249;28;20051;-73
2023/12/30 04:26:04;;;;;;;6.88;1.05;;;;;;;4.94;100.00;100723.59;5056650;28;20044;-72
2023/12/30 04:28:52;;;;;;;6.35;0.98;;;;;;;4.96;100.00;100731.44;5043060;28;20052;-73
2023/12/30 04:31:38;;;;;;;4.88;1.10;;;;;;;4.95;100.00;100735.81;5054218;28;20148;-73
2023/12/30 04:34:23;;;;;;;12.00;1.45;;;;;;;4.94;100.00;100739.34;5070530;23;20060;-72
2023/12/30 04:37:09;;;;;;;5.82;1.20;;;;;;;4.94;100.00;100733.22;4996331;28;20041;-73
2023/12/30 04:39:55;;;;;;;5.70;1.02;;;;;;;4.97;100.00;100741.03;4998624;28;20065;-73
2023/12/30 04:42:41;;;;;;;8.80;1.60;;;;;;;4.98;100.00;100746.25;4999890;28;20117;-73
2023/12/30 04:45:27;;;;;;;8.65;1.10;;;;;;;4.98;100.00;100750.63;5004420;28;20128;-73
2023/12/30 04:48:12;;;;;;;7.90;1.23;;;;;;;4.99;100.00;100750.59;5013080;28;20054;-73
2023/12/30 04:50:58;;;;;;;5.63;1.38;;;;;;;5.01;100.00;100761.06;5126340;23;20064;-73
2023/12/30 04:53:44;;;;;;;6.10;1.35;;;;;;;5.01;100.00;100761.91;5033438;28;20056;-73
2023/12/30 04:56:30;;;;;;;2.92;1.15;;;;;;;5.00;100.00;100769.81;5037104;28;20049;-72
2023/12/30 04:59:16;;;;;;;7.95;1.30;;;;;;;5.01;100.00;100771.56;5032333;28;20675;-73
2023/12/30 05:02:05;;;;;;;7.85;1.30;;;;;;;5.01;100.00;100775.03;5020443;28;20041;-73
2023/12/30 05:04:51;;;;;;;7.20;1.33;;;;;;;5.02;100.00;100768.88;5028350;28;20040;-72
2023/12/30 05:07:44;;;;;;;7.40;1.33;;;;;;;5.05;100.00;100774.97;5035067;28;20045;-73
2023/12/30 05:10:30;;;;;;;5.38;1.15;;;;;;;5.05;100.00;100777.59;5036482;28;20126;-73
2023/12/30 05:13:16;;;;;;;5.25;1.17;;;;;;;5.09;100.00;100781.88;5040051;28;20589;-72
2023/12/30 05:16:02;;;;;;;3.97;1.13;;;;;;;5.14;100.00;100782.63;5041413;28;20041;-72
2023/12/30 05:18:48;;;;;;;6.32;1.00;;;;;;;5.18;100.00;100781.66;5037175;28;20093;-74
2023/12/30 05:21:34;;;;;;;7.00;1.10;;;;;;;5.22;100.00;100787.72;5037009;28;20043;-73
2023/12/30 05:24:19;;;;;;;6.13;1.10;;;;;;;5.22;100.00;100780.69;5035885;28;20115;-73
2023/12/30 05:27:05;;;;;;;6.00;1.20;;;;;;;5.25;100.00;100785.88;5034939;28;20495;-74
2023/12/30 05:29:51;;;;;;;3.83;1.13;;;;;;;5.24;100.00;100786.75;5037081;28;20073;-73
2023/12/30 05:32:37;;;;;;;6.20;1.27;;;;;;;5.25;100.00;100785.00;5036103;28;20040;-74
2023/12/30 05:35:23;;;;;;;5.38;1.00;;;;;;;5.25;100.00;100790.25;5036524;28;20111;-74
2023/12/30 05:38:12;;;;;;;6.10;1.27;;;;;;;5.23;100.00;100803.41;5031777;28;20042;-73
2023/12/30 05:41:03;;;;;;;8.85;1.20;;;;;;;5.22;100.00;100804.31;5032099;28;20046;-73
2023/12/30 05:43:49;;;;;;;7.25;1.48;;;;;;;5.22;100.00;100803.44;5039516;28;20071;-74
2023/12/30 05:46:35;;;;;;;7.65;1.70;;;;;;;5.22;100.00;100803.44;5035616;28;20048;-73
2023/12/30 05:49:23;;;;;;;6.55;1.67;;;;;;;5.20;100.00;100806.09;5034032;28;20109;-73
2023/12/30 05:52:09;;;;;;;7.18;1.63;;;;;;;5.21;100.00;100810.44;5033218;28;20511;-72
2023/12/30 05:54:57;;;;;;;4.53;1.33;;;;;;;5.20;100.00;100803.47;5033893;28;20570;-73
2023/12/30 06:00:29;;;;;;;7.28;1.63;;;;;;;5.24;100.00;100815.63;5037347;23;20045;-77
2023/12/30 06:03:15;;;;;;;6.00;1.45;;;;;;;5.28;100.00;100811.16;5031462;28;20041;-72
2023/12/30 06:06:04;;;;;;;9.30;1.77;;;;;;;5.29;100.00;100821.63;5035302;28;20041;-75
2023/12/30 06:08:50;;;;;;;5.30;1.15;;;;;;;5.32;100.00;100817.22;5033110;28;20099;-73
2023/12/30 06:11:57;;;;;;;4.88;1.13;;;;;;;5.30;100.00;100831.22;5031771;28;20060;-73
2023/12/30 06:14:43;;;;;;;4.90;1.17;;;;;;;5.29;100.00;100824.25;5031763;28;20063;-72
2023/12/30 06:17:30;;;;;;;5.35;1.35;;;;;;;5.28;100.00;100825.16;5033758;28;20048;-73
2023/12/30 06:20:16;;;;;;;8.43;1.23;;;;;;;5.26;100.00;100842.72;5037361;28;20037;-74
2023/12/30 06:23:01;;;;;;;10.23;2.33;;;;;;;5.25;100.00;100838.38;5020955;28;20049;-74
2023/12/30 06:25:47;;;;;;;9.80;1.30;;;;;;;5.23;100.00;100845.41;5032487;28;21093;-74
2023/12/30 06:28:33;;;;;;;7.82;1.30;;;;;;;5.20;100.00;100842.84;5033087;28;20056;-73
2023/12/30 06:31:18;;;;;;;6.85;1.50;;;;;;;5.17;100.00;100842.91;5008526;28;20049;-74
2023/12/30 06:34:04;;;;;;;4.25;1.50;;;;;;;5.14;100.00;100835.97;5031174;28;20545;-72
2023/12/30 06:36:50;;;;;;;4.30;1.27;;;;;;;5.14;100.00;100843.00;5030122;28;20542;-72
2023/12/30 06:39:35;;;;;;;7.90;1.58;;;;;;;5.11;100.00;100845.66;5045897;28;20511;-71
2023/12/30 06:42:22;;;;;;;5.22;1.33;;;;;;;5.08;100.00;100843.13;5033797;28;20049;-72
2023/12/30 06:45:08;;;;;;;6.68;1.67;;;;;;;5.07;100.00;100844.03;5022050;28;20080;-72
2023/12/30 06:47:54;;;;;;;3.13;1.10;;;;;;;5.05;100.00;100841.44;5035958;28;20083;-73
2023/12/30 06:50:39;;;;;;;6.32;1.30;;;;;;;5.03;100.00;100846.72;5033109;28;20111;-73
2023/12/30 06:53:25;;;;;;;8.70;1.23;;;;;;;5.03;100.00;100844.09;5036627;28;20054;-72
2023/12/30 06:56:11;;;;;;;7.95;1.83;;;;;;;5.03;100.00;100848.47;5019773;28;20049;-72
2023/12/30 06:58:56;;;;;;;3.72;1.50;;;;;;;4.99;100.00;100857.31;5017977;28;20056;-73
2023/12/30 07:01:43;;;;;;;9.10;1.27;;;;;;;4.97;100.00;100862.59;5011417;28;20057;-73
2023/12/30 07:04:28;;;;;;;7.53;1.33;;;;;;;4.96;100.00;100865.25;5011990;28;20049;-73
2023/12/30 07:07:14;;;;;;;4.25;1.45;;;;;;;4.95;100.00;100856.50;5018282;28;20748;-74
2023/12/30 07:10:00;;;;;;;6.57;1.58;;;;;;;4.95;100.00;100872.25;5014852;28;20407;-73
2023/12/30 07:12:46;;;;;;;6.65;1.52;;;;;;;4.95;100.00;100877.50;5012438;28;20055;-73
2023/12/30 07:15:31;;;;;;;9.75;2.00;;;;;;;4.97;100.00;100882.72;5017173;28;20048;-72
2023/12/30 07:18:17;;;;;;;10.48;1.30;;;;;;;4.97;100.00;100886.19;5017465;28;20133;-72
2023/12/30 07:21:03;;;;;;;3.80;1.15;;;;;;;4.97;100.00;100894.06;4996988;28;20492;-73
2023/12/30 07:23:49;;;;;;;7.10;1.38;;;;;;;4.98;100.00;100890.56;5013964;28;20049;-73
2023/12/30 07:26:35;;;;;;;4.90;1.13;;;;;;;4.99;100.00;100902.78;5012298;28;20290;-72
2023/12/30 07:29:20;;;;;;;7.53;1.48;;;;;;;5.02;100.00;100915.84;5015045;28;20103;-73
2023/12/30 07:32:06;;;;;;;4.40;1.38;;;;;;;5.03;100.00;100909.69;5008118;28;20045;-74
2023/12/30 07:34:52;;;;;;;4.57;1.20;;;;;;;5.03;100.00;100908.84;5010530;28;20061;-73
2023/12/30 07:37:38;;;;;;;6.38;1.33;;;;;;;5.03;100.00;100911.47;5001124;28;20052;-73
2023/12/30 07:40:24;;;;;;;5.45;1.13;;;;;;;5.02;100.00;100923.72;5004290;28;20415;-73
2023/12/30 07:43:13;;;;;;;8.13;1.05;;;;;;;5.00;100.00;100917.63;5011224;28;20053;-74
2023/12/30 07:45:59;;;;;;;5.90;1.08;;;;;;;4.99;100.00;100921.16;5011294;28;20308;-72
2023/12/30 07:48:45;;;;;;;8.35;1.45;;;;;;;4.96;100.00;100926.47;5011136;28;20159;-73
2023/12/30 07:51:31;;;;;;;6.40;1.10;;;;;;;4.96;100.00;100928.25;5013341;28;20072;-75
2023/12/30 07:54:17;;;;;;;5.05;1.02;;;;;;;4.93;100.00;100931.78;5017253;28;21094;-74
2023/12/30 07:57:03;;;;;;;7.18;1.70;;;;;;;4.89;100.00;100932.72;5014499;28;21092;-74
2023/12/30 07:59:55;;;;;;;6.32;1.27;;;;;;;4.87;100.00;100935.41;5016299;28;20050;-75
2023/12/30 08:02:41;;;;;;;9.10;1.30;;;;;;;4.85;100.00;100949.44;5019779;28;20049;-72
2023/12/30 08:05:26;;;;;;;6.35;1.10;;;;;;;4.84;100.00;100963.44;5003511;28;20085;-75
2023/12/30 08:08:13;;;;;;;9.48;1.30;;;;;;;4.79;100.00;100968.78;4989832;28;20049;-73
2023/12/30 08:10:59;;;;;;;4.05;1.10;;;;;;;4.76;100.00;100982.81;5013906;28;20037;-74
2023/12/30 08:13:45;;;;;;;8.25;1.88;;;;;;;4.74;100.00;100987.22;5010836;28;20752;-74
2023/12/30 08:16:34;;;;;;;3.90;1.45;;;;;;;4.77;100.00;100988.94;5014301;28;20589;-71
2023/12/30 08:19:20;;;;;;;10.82;1.92;;;;;;;4.78;100.00;100989.81;5014597;28;20045;-72
2023/12/30 08:22:05;;;;;;;5.22;1.40;;;;;;;4.80;100.00;100993.25;5013891;28;20134;-72
2023/12/30 08:24:51;;;;;;;6.70;1.60;;;;;;;4.82;100.00;100994.09;5012463;28;20049;-73
2023/12/30 08:27:37;;;;;;;9.20;1.40;;;;;;;4.85;100.00;100999.28;5010935;28;20125;-74
2023/12/30 08:30:23;;;;;;;6.97;1.30;;;;;;;4.88;100.00;101001.84;5011331;28;20050;-73
2023/12/30 08:33:09;;;;;;;4.75;1.20;;;;;;;4.92;100.00;101014.03;5013155;28;20447;-74
2023/12/30 08:35:55;;;;;;;7.47;1.83;;;;;;;4.95;100.00;101024.44;5011489;28;20049;-74
2023/12/30 08:38:41;;;;;;;7.80;2.17;;;;;;;4.95;100.00;101021.81;5013647;28;20041;-74
2023/12/30 08:41:27;;;;;;;10.15;1.40;;;;;;;4.98;100.00;101024.41;5014473;28;20042;-74
2023/12/30 08:44:13;;;;;;;9.68;2.15;;;;;;;5.02;100.00;101026.06;5013406;28;20471;-74
2023/12/30 08:47:02;;;;;;;6.07;1.50;;;;;;;5.05;100.00;101026.91;5015659;28;20041;-73
2023/12/30 08:49:47;;;;;;;9.18;1.42;;;;;;;5.07;100.00;101025.13;5013870;28;20046;-74
2023/12/30 08:52:33;;;;;;;8.05;1.70;;;;;;;5.10;100.00;101022.41;5016013;28;20408;-74
2023/12/30 08:55:19;;;;;;;4.05;1.13;;;;;;;5.14;100.00;101029.34;5009264;28;20557;-72
2023/12/30 08:58:04;;;;;;;5.75;1.35;;;;;;;5.16;100.00;101017.06;5008247;28;20524;-74
2023/12/30 09:00:52;;;;;;;6.57;1.10;;;;;;;5.18;100.00;101033.66;5008596;28;20109;-74
2023/12/30 09:03:38;;;;;;;6.78;1.45;;;;;;;5.20;100.00;101036.22;4998304;28;20060;-74
2023/12/30 09:08:52;;;;;;;7.68;1.35;;;;;;;5.24;100.00;101036.13;5053797;23;20577;-74
2023/12/30 09:11:38;;;;;;;8.43;1.85;;;;;;;5.27;100.00;101041.34;5035792;28;20115;-75
2023/12/30 09:14:24;;;;;;;9.27;1.63;;;;;;;5.29;100.00;101044.78;5034033;28;20510;-74
2023/12/30 09:17:10;;;;;;;4.93;1.35;;;;;;;5.32;100.00;101043.03;5019379;28;20585;-74
2023/12/30 09:19:56;;;;;;;6.03;1.77;;;;;;;5.32;100.00;101043.88;5018089;28;20064;-74
2023/12/30 09:22:43;;;;;;;5.50;1.35;;;;;;;5.34;100.00;101042.06;5028427;28;20106;-72
2023/12/30 09:25:29;;;;;;;3.58;1.08;;;;;;;5.37;100.00;101039.38;5016771;28;21321;-73
2023/12/30 09:28:15;;;;;;;8.27;1.50;;;;;;;5.39;100.00;101039.38;5019964;28;20111;-74
2023/12/30 09:31:01;;;;;;;3.05;1.05;;;;;;;5.40;100.00;101041.09;5030622;28;20069;-72
2023/12/30 09:33:48;;;;;;;5.10;1.10;;;;;;;5.42;100.00;101036.66;5035282;28;20082;-73
2023/12/30 09:36:34;;;;;;;5.32;1.65;;;;;;;5.43;100.00;101036.63;5030854;28;20117;-74
2023/12/30 09:39:20;;;;;;;4.75;1.10;;;;;;;5.44;100.00;101043.63;5034232;28;20057;-73
2023/12/30 09:42:06;;;;;;;6.53;1.45;;;;;;;5.44;100.00;101045.38;5028903;28;20053;-74
2023/12/30 09:44:53;;;;;;;7.88;1.30;;;;;;;5.40;100.00;101048.97;5033819;28;20051;-74
2023/12/30 09:47:39;;;;;;;3.58;0.95;;;;;;;5.40;100.00;101055.06;5026496;28;20048;-74
2023/12/30 09:50:27;;;;;;;3.85;1.50;;;;;;;5.37;100.00;101062.16;5028570;28;20045;-75
2023/12/30 09:53:13;;;;;;;3.25;1.13;;;;;;;5.35;100.00;101064.81;5032211;28;20044;-75
2023/12/30 09:55:59;;;;;;;8.90;1.20;;;;;;;5.33;100.00;101060.50;5023017;28;20046;-72
2023/12/30 09:58:45;;;;;;;6.95;1.63;;;;;;;5.32;100.00;101058.78;5011723;28;20037;-73
2023/12/30 10:01:34;;;;;;;5.35;1.30;;;;;;;5.31;100.00;101052.63;5012108;28;20049;-73
2023/12/30 10:04:23;;;;;;;6.00;1.38;;;;;;;5.30;100.00;101050.91;5015874;28;20037;-75
2023/12/30 10:07:10;;;;;;;5.65;1.15;;;;;;;5.33;100.00;101055.25;5015659;28;20053;-74
2023/12/30 10:09:56;;;;;;;4.10;1.35;;;;;;;5.31;100.00;101050.00;5012598;28;20065;-74
2023/12/30 10:12:43;;;;;;;8.43;1.10;;;;;;;5.30;100.00;101057.00;5013334;28;20037;-74
2023/12/30 10:15:28;;;;;;;3.08;1.00;;;;;;;5.29;100.00;101054.44;5008344;28;20048;-74
2023/12/30 10:18:15;;;;;;;11.13;1.77;;;;;;;5.32;100.00;101057.00;4995006;28;20048;-74
2023/12/30 10:21:03;;;;;;;4.90;1.20;;;;;;;5.31;100.00;101065.78;5015432;28;20131;-73
2023/12/30 10:23:51;;;;;;;5.68;1.48;;;;;;;5.35;100.00;101063.94;5015010;28;20049;-72
2023/12/30 10:26:39;;;;;;;10.15;1.20;;;;;;;5.36;100.00;101066.56;5024000;28;20053;-74
2023/12/30 10:29:25;;;;;;;9.70;1.23;;;;;;;5.39;100.00;101063.00;5011665;28;20175;-75
2023/12/30 10:32:11;;;;;;;3.10;1.20;;;;;;;5.42;100.00;101070.81;5007305;28;20049;-75
2023/12/30 10:34:57;;;;;;;6.78;1.67;;;;;;;5.41;100.00;101069.91;5000274;28;20499;-73
2023/12/30 10:37:44;;;;;;;4.50;1.40;;;;;;;5.46;100.00;101077.72;5010680;28;20057;-74
2023/12/30 10:40:30;;;;;;;7.40;1.40;;;;;;;5.48;100.00;101083.81;5011676;28;20045;-75
2023/12/30 10:43:19;;;;;;;7.85;1.95;;;;;;;5.51;100.00;101080.25;5012243;28;20420;-73
2023/12/30 10:46:09;;;;;;;5.85;1.27;;;;;;;5.55;100.00;101079.28;5011226;28;20050;-73
2023/12/30 10:48:56;;;;;;;1.55;1.10;;;;;;;5.55;100.00;101077.53;5011353;28;20050;-74
2023/12/30 10:51:43;;;;;;;11.10;1.58;;;;;;;5.57;100.00;101061.75;5011688;28;20054;-75
2023/12/30 10:54:36;;;;;;;1.90;1.02;;;;;;;5.58;100.00;101058.22;5010574;28;20037;-74
2023/12/30 10:57:27;;;;;;;7.00;1.30;;;;;;;5.62;100.00;101061.66;5010249;28;20136;-74
2023/12/30 11:00:44;;;;;;;6.82;1.35;;;;;;;5.63;100.00;101060.75;5026338;28;20036;-74
2023/12/30 11:03:33;;;;;;;4.38;0.90;;;;;;;5.66;100.00;101060.69;5013674;28;20041;-75
2023/12/30 11:06:23;;;;;;;7.03;1.20;;;;;;;5.68;100.00;101064.16;4997846;28;20049;-74
2023/12/30 11:09:09;;;;;;;7.13;1.20;;;;;;;5.71;100.00;101061.44;5013523;28;20813;-74
2023/12/30 11:12:00;;;;;;;4.80;1.10;;;;;;;5.73;100.00;101064.91;5009747;28;20514;-74
2023/12/30 11:14:48;;;;;;;8.15;1.10;;;;;;;5.78;100.00;101062.19;5013907;28;20140;-74
2023/12/30 11:17:37;;;;;;;5.35;1.17;;;;;;;5.83;100.00;101069.06;4996918;28;20603;-74
2023/12/30 11:20:30;;;;;;;4.22;1.40;;;;;;;5.88;100.00;101074.22;5012384;28;20187;-74
2023/12/30 11:23:18;;;;;;;4.63;1.83;;;;;;;5.92;100.00;101077.63;4996291;28;20347;-73
2023/12/30 11:26:05;;;;;;;5.85;1.60;;;;;;;5.94;100.00;101081.13;4999799;28;20072;-72
2023/12/30 11:28:50;;;;;;;5.93;1.38;;;;;;;5.98;100.00;101080.13;5012001;28;20056;-74
2023/12/30 11:31:41;;;;;;;4.80;1.40;;;;;;;6.00;100.00;101072.22;5010441;28;20061;-73
2023/12/30 11:34:27;;;;;;;3.95;1.35;;;;;;;6.04;100.00;101076.53;5011022;28;20064;-74
2023/12/30 11:37:13;;;;;;;3.95;1.45;;;;;;;6.07;100.00;101073.84;5011542;28;20091;-75
2023/12/30 11:39:59;;;;;;;4.15;1.08;;;;;;;6.10;100.00;101069.38;5011569;28;20073;-73
2023/12/30 11:42:45;;;;;;;2.10;0.90;;;;;;;6.14;100.00;101074.56;5024202;28;20056;-74
2023/12/30 11:45:34;;;;;;;6.70;1.13;;;;;;;6.17;100.00;101069.22;5013212;28;20081;-73
2023/12/30 11:48:20;;;;;;;11.40;3.17;;;;;;;6.21;100.00;101063.00;5015861;28;20069;-74
2023/12/30 11:51:07;;;;;;;9.15;1.67;;;;;;;6.24;100.00;101061.16;5011860;28;20053;-73
2023/12/30 11:53:53;;;;;;;6.97;1.27;;;;;;;6.28;100.00;101051.44;5014950;28;20049;-74
2023/12/30 11:56:40;;;;;;;8.27;1.27;;;;;;;6.32;100.00;101046.97;5013662;28;20725;-73
2023/12/30 11:59:26;;;;;;;5.50;1.38;;;;;;;6.32;100.00;101052.22;5016190;28;20057;-73
2023/12/30 12:02:15;;;;;;;9.07;2.63;;;;;;;6.32;100.00;101050.44;5021314;28;20041;-74
2023/12/30 12:05:01;;;;;;;10.40;2.30;;;;;;;6.35;100.00;101044.25;5002961;28;20389;-75
2023/12/30 12:07:47;;;;;;;4.88;1.80;;;;;;;6.37;100.00;101047.69;5016773;28;20046;-74
2023/12/30 12:10:40;;;;;;;4.50;1.50;;;;;;;6.39;100.00;101054.66;5035050;28;20038;-74
2023/12/30 12:13:26;;;;;;;6.47;1.40;;;;;;;6.41;100.00;101037.97;5021816;28;20326;-72
2023/12/30 12:16:12;;;;;;;5.90;1.50;;;;;;;6.42;100.00;101035.31;5017952;28;21073;-74
2023/12/30 12:19:02;;;;;;;4.38;1.20;;;;;;;6.47;100.00;101033.44;5018814;28;20128;-75
2023/12/30 12:21:47;;;;;;;5.55;1.30;;;;;;;6.51;100.00;101021.06;5016040;28;20104;-74
2023/12/30 12:24:34;;;;;;;3.33;1.20;;;;;;;6.53;100.00;101019.25;5014298;28;20054;-74
2023/12/30 12:27:21;;;;;;;5.38;1.10;;;;;;;6.55;100.00;101020.09;5014538;28;20056;-73
2023/12/30 12:30:09;;;;;;;5.20;1.30;;;;;;;6.56;100.00;101019.19;5013362;28;20037;-73
2023/12/30 12:32:55;;;;;;;4.03;1.10;;;;;;;6.60;100.00;101022.59;5014204;28;20068;-74
2023/12/30 12:35:41;;;;;;;9.35;2.00;;;;;;;6.60;100.00;101015.56;4999000;28;20060;-74
2023/12/30 12:38:27;;;;;;;7.47;1.42;;;;;;;6.62;100.00;101013.78;5010737;28;20037;-73
2023/12/30 12:41:15;;;;;;;9.52;1.17;;;;;;;6.61;100.00;101006.78;5013732;28;20072;-73
2023/12/30 12:44:01;;;;;;;5.75;1.45;;;;;;;6.65;100.00;101012.84;5013360;28;20041;-73
2023/12/30 12:46:47;;;;;;;7.55;1.50;;;;;;;6.68;100.00;101010.09;5012975;28;20057;-73
2023/12/30 12:49:33;;;;;;;4.43;1.58;;;;;;;6.70;100.00;101010.06;5013110;28;20087;-73
2023/12/30 12:52:19;;;;;;;6.20;0.93;;;;;;;6.71;100.00;101006.53;5003146;28;20569;-74
2023/12/30 12:55:05;;;;;;;8.38;1.30;;;;;;;6.71;100.00;100996.84;5012581;28;20069;-73
2023/12/30 12:57:51;;;;;;;5.40;1.25;;;;;;;6.71;100.00;100991.59;5013253;28;20040;-73
2023/12/30 13:00:44;;;;;;;3.17;1.00;;;;;;;6.73;100.00;100988.91;5021784;28;20069;-74
2023/12/30 13:03:30;;;;;;;6.22;1.13;;;;;;;6.72;100.00;100995.97;5022555;28;20102;-74
2023/12/30 13:06:16;;;;;;;4.40;1.30;;;;;;;6.72;100.00;100992.47;5023372;28;20171;-73
2023/12/30 13:09:20;;;;;;;8.95;1.60;;;;;;;6.71;100.00;100988.13;5015331;28;20056;-74